Date,TemperatureHighF,TemperatureAvgF,TemperatureLowF,DewpointHighF,DewpointAvgF,DewpointLowF,HumidityHigh,HumidityAvg,HumidityLow,PressureMaxIn,PressureMinIn,WindSpeedMaxMPH,WindSpeedAvgMPH,GustSpeedMaxMPH,PrecipitationSumIn
2014-1-1,8.7,2.0,2.8,3.5,-69.7,-99.9,91,23,72,30.52,30.34,11,-698,0,0.00
2014-1-2,11.0,2.7,4.7,7.1,-67.3,-99.9,88,26,77,30.44,30.30,13,-684,0,0.00
2014-1-3,17.5,2.7,2.9,13.5,-72.0,-99.9,85,20,63,30.42,29.70,14,-726,0,0.00
2014-1-4,-200.0,0.0,200.0,-99.9,-99.9,-99.9,0,0,100,30.04,29.55,0,-999,0,0.00
2014-1-5,8.5,2.3,7.3,2.5,-69.6,-99.9,79,22,73,30.24,29.98,13,-698,0,0.00
2014-1-6,-6.7,-2.9,-10.2,-14.3,-71.6,-99.9,74,23,61,30.07,29.86,15,-654,0,0.00
2014-1-7,-4.0,-2.8,-14.5,-11.4,-71.6,-99.9,76,24,67,30.29,29.94,17,-662,0,0.00
2014-1-8,4.9,0.0,-5.3,-0.8,-66.3,-99.9,92,28,74,30.55,30.22,11,-642,0,0.00
2014-1-9,10.5,1.9,-6.8,4.8,-64.0,-99.9,87,28,74,30.55,30.16,12,-639,0,0.00
2014-1-10,-200.0,0.0,200.0,-99.9,-99.9,-99.9,0,0,100,30.15,29.40,0,-999,0,0.00
2014-1-11,31.0,5.5,29.8,30.0,-76.4,-99.9,98,17,91,29.62,29.28,14,-814,0,0.03
2014-1-12,35.1,10.6,27.4,32.5,-57.5,-99.9,92,30,89,29.71,29.47,18,-669,0,0.04
2014-1-13,-200.0,0.0,200.0,-99.9,-99.9,-99.9,0,0,100,29.62,29.40,0,-999,0,0.00
2014-1-14,25.4,3.6,22.6,24.7,-81.9,-99.9,97,14,96,29.75,29.60,20,-851,0,0.00
2014-1-15,15.0,5.1,11.3,10.2,-58.2,-99.9,84,31,80,30.00,29.75,15,-612,0,0.00
2014-1-16,28.6,5.8,27.9,26.3,-74.0,-99.9,91,18,87,29.58,29.42,3,-792,0,0.00
2014-1-17,26.1,6.6,19.7,25.1,-65.4,-99.9,96,26,84,29.90,29.57,17,-711,0,0.00
2014-1-18,17.6,4.9,4.5,13.0,-60.3,-99.9,91,31,78,29.92,29.67,3,-638,0,0.00
2014-1-19,27.0,6.8,22.0,24.5,-66.6,-99.9,91,25,87,29.66,29.38,15,-723,0,0.00
2014-1-20,11.6,3.3,6.5,6.9,-65.7,-99.9,87,25,71,30.27,29.67,14,-667,0,0.00
2014-1-21,5.9,1.1,-0.8,-1.2,-64.3,-99.9,80,28,70,30.35,30.16,13,-628,0,0.00
2014-1-22,5.4,1.4,3.5,3.1,-67.0,-99.9,90,29,87,30.15,29.86,11,-673,0,0.00
2014-1-23,8.9,2.6,3.4,6.3,-62.3,-99.9,90,32,85,30.51,30.11,13,-636,0,0.00
2014-1-24,14.7,3.0,7.2,12.3,-70.5,-99.9,91,24,88,30.32,29.27,21,-723,0,0.00
2014-1-25,6.2,1.4,1.9,3.0,-66.2,-99.9,87,27,69,29.78,29.27,18,-654,0,0.00
2014-1-26,5.5,1.1,4.2,3.0,-77.9,-99.9,89,19,88,29.73,29.31,12,-784,0,0.00
2014-1-27,-2.3,-1.8,-7.3,-9.4,-57.7,-99.9,77,33,65,30.20,29.69,14,-519,0,0.00
2014-1-31,6.1,4.6,4.2,-0.6,-13.0,-99.9,75,65,73,30.13,30.04,11,-112,0,0.00
2014-2-1,9.4,8.0,8.1,5.5,-7.5,-99.9,84,71,76,30.02,29.92,3,-109,0,0.00
2014-2-2,14.8,1.9,14.0,6.5,-86.1,-99.9,70,9,69,30.28,30.20,1,-869,0,0.00
2014-2-3,17.0,2.6,-2.4,8.9,-67.6,-99.9,81,24,66,30.38,30.22,12,-680,0,0.00
2014-2-4,17.7,4.2,3.6,11.7,-66.4,-99.9,89,25,77,30.48,30.32,7,-690,0,0.00
2014-2-5,9.0,2.8,6.5,3.5,-64.3,-99.9,84,27,74,30.43,30.26,16,-648,0,0.00
2014-2-6,6.9,1.3,-0.6,1.7,-63.2,-99.9,86,29,71,30.39,30.09,16,-620,0,0.00
2014-2-7,9.6,1.4,-4.2,2.3,-62.9,-99.9,86,30,70,30.23,30.04,22,-617,0,0.00
2014-2-8,13.9,2.9,-1.2,7.0,-61.7,-99.9,81,29,72,30.27,30.10,10,-623,0,0.00
2014-2-9,16.7,5.1,6.3,9.8,-58.9,-99.9,86,29,71,30.27,30.05,5,-617,0,0.00
2014-2-10,8.9,1.2,-3.4,-1.5,-62.5,-99.9,82,28,60,30.49,30.24,11,-609,0,0.00
2014-2-11,9.0,1.6,-6.0,0.6,-63.0,-99.9,83,27,67,30.56,30.27,6,-618,0,0.00
2014-2-12,13.2,3.7,9.0,9.0,-63.8,-99.9,89,29,82,30.31,30.00,18,-660,0,0.00
2014-2-13,25.8,6.1,24.3,24.6,-69.9,-99.9,95,23,91,30.03,29.43,10,-754,0,0.00
2014-2-14,16.8,5.5,10.0,14.6,-59.1,-99.9,91,31,80,29.98,29.46,17,-626,0,0.00
2014-2-15,15.0,3.4,-1.6,9.2,-59.8,-99.9,86,30,71,30.11,29.96,6,-610,0,0.00
2014-2-16,15.3,4.5,4.9,9.6,-57.5,-99.9,90,33,74,30.38,30.00,13,-601,0,0.00
2014-2-17,21.9,7.4,19.1,17.6,-57.9,-99.9,92,31,74,30.35,29.75,12,-635,0,0.00
2014-2-18,30.4,10.1,11.5,28.4,-51.7,-99.9,94,36,90,29.86,29.56,15,-608,0,0.00
2014-2-19,38.2,13.4,21.1,27.5,-46.4,-99.9,94,33,63,29.91,29.61,12,-566,0,0.11
2014-2-20,-200.0,0.0,200.0,-99.9,-99.9,-99.9,0,0,100,29.92,29.00,0,-999,0,0.00
2014-2-21,20.4,4.4,18.1,15.5,-74.3,-99.9,83,18,78,29.49,28.93,28,-770,0,0.00
2014-2-22,22.2,7.0,11.0,14.5,-56.0,-99.9,81,30,71,29.95,29.49,20,-597,0,0.00
2014-2-23,20.0,5.4,5.3,10.3,-57.7,-99.9,81,29,62,30.08,29.94,17,-599,0,0.00
2014-2-24,15.2,4.9,8.3,5.4,-57.4,-99.9,86,29,62,30.22,30.04,10,-587,0,0.00
2014-2-25,10.2,3.3,5.3,0.4,-59.5,-99.9,77,27,56,30.20,30.02,13,-585,0,0.00
2014-2-26,7.3,0.2,-5.2,-0.9,-61.6,-99.9,75,29,63,30.14,29.48,21,-580,0,0.00
2014-2-27,2.1,0.0,-2.9,-9.7,-63.2,-99.9,72,24,47,30.25,29.60,16,-578,0,0.00
2014-2-28,16.8,2.2,-6.7,15.1,-60.8,-99.9,93,29,54,30.27,29.94,8,-603,0,0.00
2014-3-1,10.4,2.9,2.0,0.0,-58.9,-99.9,78,28,60,30.44,30.06,12,-580,0,0.00
2014-3-2,4.9,-0.4,-6.4,-7.6,-61.9,-99.9,70,26,51,30.51,30.31,10,-566,0,0.00
2014-3-3,9.4,1.9,-10.9,0.3,-59.7,-99.9,83,29,64,30.56,30.31,14,-580,0,0.00
2014-3-4,19.7,6.1,9.9,11.8,-54.9,-99.9,90,33,71,30.40,30.20,6,-589,0,0.03
2014-3-5,13.5,3.3,-2.6,10.1,-56.3,-99.9,92,36,83,30.64,30.39,10,-581,0,0.00
2014-3-6,21.3,8.4,12.5,17.8,-49.3,-99.9,91,38,83,30.56,30.02,10,-559,0,0.00
2014-3-7,28.6,10.3,25.6,26.9,-53.6,-99.9,95,34,88,30.09,29.84,14,-629,0,0.00
2014-3-8,25.3,8.7,14.3,16.7,-50.7,-99.9,87,34,66,30.30,30.08,16,-566,0,0.02
2014-3-9,34.4,12.4,17.1,27.6,-46.1,-99.9,85,34,67,30.18,29.62,16,-553,0,0.00
2014-3-10,50.4,14.2,36.5,37.1,-56.9,-99.9,86,22,47,29.67,29.40,14,-677,0,0.89
2014-3-11,40.0,9.2,31.5,31.6,-66.7,-99.9,82,20,70,29.89,29.56,12,-741,0,0.00
2014-3-12,12.8,4.5,4.9,3.8,-54.5,-99.9,79,31,62,30.20,29.89,19,-548,0,0.00
2014-3-13,29.2,10.4,16.5,23.3,-50.9,-99.9,81,29,58,30.16,29.65,13,-572,0,0.00
2014-3-14,-200.0,0.0,200.0,-99.9,-99.9,-99.9,0,0,100,29.70,29.35,0,-999,0,0.00
2014-3-15,19.7,8.4,14.2,15.8,-48.5,-99.9,89,35,70,30.51,29.71,16,-535,0,0.00
2014-3-16,15.1,5.1,5.7,9.0,-52.1,-99.9,82,35,69,30.59,30.27,10,-544,0,0.00
2014-3-17,23.9,9.2,19.7,17.2,-51.3,-99.9,87,31,63,30.26,29.82,10,-569,0,0.00
2014-3-18,31.9,10.6,28.7,27.4,-56.5,-99.9,87,28,79,29.98,29.86,6,-653,0,0.00
2014-3-19,-200.0,0.0,200.0,-99.9,-99.9,-99.9,0,0,100,29.88,29.60,0,-999,0,0.00
2014-3-20,35.6,15.1,25.5,25.7,-41.8,-99.9,89,34,62,30.05,29.79,10,-522,0,0.02
2014-3-21,35.5,14.7,28.8,29.0,-42.9,-99.9,96,36,68,30.05,29.80,9,-550,0,0.00
2014-3-22,22.0,7.1,16.9,14.5,-61.1,-99.9,79,25,68,30.41,29.83,17,-653,0,0.00
2014-3-23,20.7,7.7,6.6,9.5,-49.3,-99.9,82,31,55,30.47,30.36,9,-523,0,0.00
2014-3-24,27.2,9.5,8.6,13.3,-49.6,-99.9,80,29,50,30.37,29.97,13,-538,0,0.00
2014-3-25,18.5,7.8,11.8,10.4,-48.9,-99.9,86,33,61,30.22,29.95,14,-523,0,0.00
2014-3-26,25.3,9.2,9.0,19.2,-49.2,-99.9,78,32,64,30.30,30.01,14,-537,0,0.00
2014-3-27,-200.0,0.0,200.0,-99.9,-99.9,-99.9,0,0,100,30.02,29.48,0,-999,0,0.00
2014-3-28,32.7,10.9,29.6,27.6,-56.3,-99.9,88,28,69,30.28,29.47,15,-649,0,0.09
2014-3-29,35.6,13.3,27.8,23.8,-49.4,-99.9,82,27,51,30.35,30.23,6,-581,0,0.00
2014-3-30,34.4,16.1,24.9,30.7,-37.2,-99.9,95,41,76,30.28,30.05,12,-510,0,0.00
2014-3-31,49.6,13.5,39.7,35.9,-60.1,-99.9,79,19,48,30.08,29.70,19,-698,0,0.00
2014-4-1,-200.0,0.0,200.0,-99.9,-99.9,-99.9,0,0,100,30.00,29.51,0,-999,0,0.00
2014-4-2,35.0,14.1,24.0,26.6,-43.8,-99.9,78,33,60,30.30,30.00,6,-540,0,0.00
2014-4-3,-200.0,0.0,200.0,-99.9,-99.9,-99.9,0,0,100,30.30,29.83,0,-999,0,0.00
2014-4-4,-200.0,0.0,200.0,-99.9,-99.9,-99.9,0,0,100,29.83,29.41,0,-999,0,0.00
2014-4-5,34.4,14.6,19.7,29.5,-37.4,-99.9,93,42,77,30.16,29.82,7,-498,0,0.05
2014-4-6,40.4,16.5,36.5,34.9,-42.4,-99.9,86,36,78,30.09,29.90,11,-566,0,0.00
2014-4-7,52.5,11.6,40.4,43.0,-66.0,-99.9,82,18,70,29.92,29.63,5,-756,0,0.00
2014-4-8,47.9,13.9,37.8,37.9,-57.0,-99.9,78,23,61,29.92,29.62,15,-676,0,0.00
2014-4-9,47.2,8.4,42.0,36.0,-74.8,-99.9,76,13,59,29.94,29.85,13,-812,0,0.00
2014-5-13,57.6,35.5,46.3,51.9,-3.4,-99.9,89,52,76,30.07,29.83,6,-351,0,0.00
2014-5-14,55.8,15.7,44.1,41.7,-58.1,-99.9,82,18,51,30.18,30.06,3,-698,0,0.00
2014-5-15,-200.0,0.0,200.0,-99.9,-99.9,-99.9,0,0,100,30.12,29.91,0,-999,0,0.00
2014-5-16,44.8,13.9,38.5,36.7,-55.0,-99.9,83,26,66,30.06,29.98,7,-666,0,0.00
2014-5-17,50.2,15.3,44.4,40.0,-54.9,-99.9,75,23,65,30.06,29.98,9,-671,0,0.00
2014-5-18,57.4,16.4,46.7,45.3,-54.4,-99.9,79,23,63,30.10,30.01,8,-679,0,0.00
2014-5-19,-200.0,0.0,200.0,-99.9,-99.9,-99.9,0,0,100,30.17,30.04,0,-999,0,0.00
2014-5-20,56.3,18.0,49.0,51.8,-50.5,-99.9,90,28,82,30.07,29.82,5,-670,0,0.00
2014-5-21,67.5,18.8,56.0,59.5,-52.9,-99.9,81,23,68,29.96,29.78,5,-694,0,0.00
2014-5-22,58.6,16.3,47.0,49.0,-52.5,-99.9,89,28,67,30.13,29.95,1,-673,0,0.00
2014-5-23,68.4,24.6,56.5,49.6,-43.6,-99.9,66,21,45,30.20,30.13,4,-617,0,0.00
2014-5-24,65.4,19.8,59.0,52.2,-53.0,-99.9,72,19,55,30.21,30.07,10,-683,0,0.00
2014-5-25,68.6,23.0,57.0,54.6,-45.3,-99.9,73,23,57,30.09,29.96,8,-636,0,0.00
2014-5-26,70.8,24.1,55.5,64.2,-39.3,-99.9,94,33,74,29.96,29.83,10,-616,0,0.00
2014-5-27,70.1,37.6,53.1,58.2,-7.4,-99.9,94,44,47,29.99,29.86,11,-387,0,0.00
2014-5-28,66.1,20.8,58.1,52.6,-50.6,-99.9,73,21,60,30.13,29.98,6,-672,0,0.00
2014-5-29,66.7,20.0,58.6,56.6,-51.5,-99.9,85,23,65,30.18,30.10,6,-686,0,0.00
2014-5-30,75.6,21.9,62.7,60.2,-51.3,-99.9,73,19,56,30.21,30.12,5,-691,0,0.00
2014-5-31,68.3,20.4,55.5,58.6,-50.8,-99.9,82,23,68,30.20,30.04,7,-684,0,0.00
2014-6-1,62.0,14.4,53.5,57.1,-62.0,-99.9,84,20,74,30.03,29.82,7,-748,0,0.00
2014-6-2,68.3,23.2,50.2,65.6,-36.7,-99.9,100,39,87,29.83,29.58,9,-592,0,0.20
2014-6-3,69.7,23.9,61.4,57.1,-43.7,-99.9,74,25,62,29.89,29.57,11,-634,0,0.00
2014-6-4,67.9,20.8,57.2,55.4,-52.3,-99.9,78,19,53,29.93,29.87,5,-684,0,0.00
2014-6-5,68.1,20.2,57.5,51.7,-53.2,-99.9,66,18,51,29.99,29.89,6,-682,0,0.00
2014-6-6,67.9,18.4,60.4,57.5,-55.6,-99.9,75,20,65,29.97,29.90,7,-711,0,0.00
2014-6-7,69.7,18.4,55.9,56.2,-55.1,-99.9,91,21,47,29.98,29.86,15,-701,0,0.00
2014-6-8,67.7,20.4,59.5,53.5,-53.5,-99.9,62,17,48,30.08,29.94,10,-686,0,0.00
2014-6-9,66.7,20.8,55.8,51.4,-51.3,-99.9,79,19,45,30.08,29.98,5,-668,0,0.00
2014-6-10,68.9,26.0,59.0,56.0,-39.4,-99.9,87,25,53,30.00,29.89,8,-602,0,0.00
2014-6-11,65.5,16.5,57.2,57.5,-57.5,-99.9,96,23,68,29.88,29.75,10,-725,0,0.21
2014-6-12,65.6,16.4,51.2,57.1,-56.7,-99.9,98,24,66,29.76,29.64,11,-716,0,0.00
2014-6-13,61.1,26.5,48.6,49.6,-29.5,-99.9,86,36,60,30.05,29.72,14,-517,0,0.00
2014-6-14,57.8,16.1,53.6,48.5,-58.8,-99.9,77,20,68,30.14,30.03,11,-711,0,0.00
2014-6-15,69.4,13.8,63.6,55.8,-68.4,-99.9,65,13,60,30.03,29.73,15,-793,0,0.00
2014-6-20,-200.0,0.0,200.0,-99.9,-99.9,-99.9,0,0,100,30.04,29.97,0,-999,0,0.00
2014-6-21,61.6,17.3,55.0,60.2,-53.1,-99.9,99,29,93,30.00,29.90,7,-700,0,0.00
2014-6-22,68.1,22.6,55.2,62.5,-44.0,-99.9,95,30,80,29.94,29.83,5,-649,0,0.00
2014-6-23,70.8,17.0,62.4,66.1,-58.0,-99.9,96,23,84,29.87,29.80,6,-741,0,0.00
2014-6-24,71.1,21.5,61.4,67.9,-47.1,-99.9,96,29,86,29.97,29.82,8,-676,0,0.00
2014-6-25,61.7,16.7,58.1,57.5,-56.7,-99.9,89,24,82,30.06,29.96,7,-721,0,0.00
2014-6-26,71.1,25.7,61.3,59.5,-40.7,-99.9,84,26,61,30.10,30.01,7,-621,0,0.00
2014-6-27,72.3,16.3,64.7,66.8,-61.1,-99.9,90,20,82,30.06,29.96,10,-762,0,0.00
2014-6-28,71.6,26.0,65.0,67.9,-37.0,-99.9,96,35,87,30.02,29.89,8,-617,0,0.00
2014-6-29,74.8,37.1,55.5,70.1,-6.5,-99.9,100,53,82,29.89,29.69,12,-419,0,0.05
2014-6-30,75.2,19.1,58.1,69.4,-52.5,-99.9,97,26,79,29.75,29.48,6,-706,0,0.00
2014-7-1,75.9,29.0,69.0,67.3,-34.4,-99.9,83,30,71,29.64,29.44,12,-599,0,0.00
2014-7-2,67.1,20.2,57.4,55.6,-51.2,-99.9,85,22,54,30.00,29.62,10,-682,0,0.00
2014-7-3,-200.0,0.0,200.0,-99.9,-99.9,-99.9,0,0,100,30.05,29.99,0,-999,0,0.00
2014-7-4,71.1,44.8,64.9,58.1,1.7,-99.9,71,42,60,30.23,30.18,7,-348,0,0.00
2014-7-5,69.0,20.5,59.9,60.0,-51.2,-99.9,88,24,73,30.18,29.91,8,-683,0,0.00
2014-7-6,-200.0,0.0,200.0,-99.9,-99.9,-99.9,0,0,100,29.92,29.55,0,-999,0,0.00
2014-7-7,80.8,24.1,75.5,67.7,-49.1,-99.9,75,20,57,29.62,29.54,14,-690,0,0.00
2014-7-8,59.7,29.5,58.6,55.4,-22.5,-99.9,88,43,85,29.79,29.69,9,-498,0,0.00
2014-7-9,65.8,22.8,60.0,58.3,-43.4,-99.9,88,29,66,30.04,29.78,7,-637,0,0.00
2014-7-10,66.8,24.6,61.1,59.0,21.5,54.9,81,28,70,30.17,30.04,6,2,0,0.00
2014-7-11,68.0,35.4,63.9,61.2,32.1,57.9,85,44,78,30.13,30.03,8,2,0,0.00
2014-7-18,69.7,44.3,63.5,60.4,39.0,58.1,86,49,68,30.11,30.06,8,4,0,0.00
2014-7-19,71.7,21.8,67.1,63.1,19.0,58.3,77,23,71,30.07,29.97,8,2,0,0.00
2014-7-20,71.3,22.2,64.9,63.3,19.9,60.3,85,25,75,30.02,29.93,8,2,0,0.00
2014-7-21,72.8,13.4,68.8,66.1,12.3,64.1,85,15,79,30.01,29.94,9,1,0,0.00
2014-7-22,84.6,48.5,66.8,75.0,42.9,61.5,87,47,61,30.05,29.76,18,6,0,0.00
2014-7-23,69.2,21.3,62.6,57.4,17.4,53.1,72,21,60,30.18,30.05,14,2,0,0.00
2014-7-24,71.7,24.3,61.8,57.0,19.4,49.9,74,22,48,30.18,29.97,6,1,0,0.00
2014-7-25,68.0,16.6,61.8,61.9,15.6,58.5,91,22,80,29.98,29.81,9,1,0,0.00
2014-7-26,73.7,23.7,64.7,68.9,22.4,62.6,93,30,83,29.82,29.67,9,1,0,0.00
2014-7-27,67.7,19.4,61.0,63.5,18.3,55.5,97,27,79,29.86,29.63,19,4,0,0.01
2014-8-4,74.2,39.6,66.1,62.9,33.4,55.8,81,39,57,30.07,30.03,1,0,0,0.00
2014-8-5,75.6,22.8,64.1,61.0,17.6,49.2,72,17,43,30.11,30.02,7,1,0,0.00
2014-8-6,77.8,22.7,67.7,60.5,17.2,52.4,72,16,43,30.10,30.02,7,1,0,0.00
2014-8-7,77.4,21.1,67.4,64.6,16.8,57.3,73,17,52,30.15,30.04,1,0,0,0.00
2014-8-8,81.5,22.4,67.4,67.8,18.6,60.9,85,19,52,30.14,30.06,3,0,0,0.00
2014-8-9,78.9,23.8,69.5,65.2,19.3,60.8,74,19,56,30.17,30.07,7,1,0,0.00
2014-8-10,77.6,23.2,69.7,66.4,19.0,59.1,77,19,55,30.11,29.97,6,0,0,0.00
2014-8-11,-200.0,0.0,200.0,-99.9,0.0,200.0,0,0,100,29.99,29.80,0,0,0,0.00
2014-8-12,62.5,11.8,58.5,57.5,11.0,54.8,88,17,83,29.82,29.75,16,3,0,0.00
2014-9-19,60.4,59.4,59.0,58.4,57.8,57.3,95,94,93,29.92,29.86,9,7,0,0.00
2014-9-24,62.9,22.9,58.9,59.3,21.8,56.9,95,34,87,30.30,30.27,5,1,0,0.00
2014-9-25,65.2,2.0,64.8,55.9,1.7,55.9,73,2,72,30.29,30.26,6,0,0,0.00
2014-10-3,56.2,2.6,55.9,50.1,2.3,49.5,80,4,79,29.53,29.34,11,0,0,0.00
2014-10-4,-200.0,0.0,200.0,-99.9,0.0,200.0,0,0,100,29.56,29.46,0,0,0,0.00
2014-10-5,44.7,14.4,41.7,36.4,11.8,34.1,77,25,70,29.55,29.51,14,3,0,0.00
2014-10-6,54.1,15.3,51.0,44.5,12.1,37.0,77,19,53,29.52,29.44,13,2,0,0.00
2014-10-7,58.4,17.6,51.7,49.1,14.0,40.7,85,21,54,29.69,29.42,7,1,0,0.00
2014-10-8,50.3,13.1,45.7,35.9,9.2,32.6,66,16,51,29.93,29.69,14,2,0,0.00
2014-10-9,53.0,15.5,48.9,42.3,12.4,39.3,74,20,64,30.13,29.92,11,1,0,0.00
2014-10-10,51.3,15.4,47.9,42.6,12.8,39.9,81,22,66,30.18,30.12,8,1,0,0.00
2014-10-11,52.0,19.7,40.0,45.0,16.6,37.8,99,30,59,30.24,30.11,4,1,0,0.00
2014-10-12,55.4,21.1,49.7,50.7,18.9,44.1,90,32,72,30.11,29.91,9,2,0,0.00
2014-10-13,55.1,4.5,53.8,54.3,4.5,53.0,97,8,97,29.91,29.58,6,0,0,0.00
2014-10-14,-200.0,0.0,200.0,-99.9,0.0,200.0,0,0,100,29.60,29.55,0,0,0,0.00
2014-10-15,-200.0,0.0,200.0,-99.9,0.0,200.0,0,0,100,29.87,29.82,0,0,0,0.00
2014-10-16,51.0,14.4,49.9,50.7,13.9,49.6,100,28,98,29.83,29.57,4,0,0,0.00
2014-10-17,-200.0,0.0,200.0,-99.9,0.0,200.0,0,0,100,29.57,29.41,0,0,0,0.00
2014-10-20,-200.0,0.0,200.0,-99.9,0.0,200.0,0,0,100,29.96,29.81,0,0,0,0.00
2014-10-30,-200.0,0.0,200.0,-99.9,0.0,200.0,0,0,100,30.03,29.93,0,0,0,0.00
2014-10-31,35.1,9.4,33.4,29.4,7.5,24.0,84,21,68,30.45,29.93,23,6,0,0.00
2014-11-1,40.5,14.0,33.9,28.9,10.6,26.3,74,27,62,30.49,30.35,8,1,0,0.00
2014-11-2,46.3,14.7,38.5,40.6,12.4,33.5,87,25,68,30.36,30.06,10,2,0,0.00
2014-11-3,48.3,14.3,44.3,42.9,11.8,33.2,87,22,63,30.06,29.77,8,1,0,0.00
2014-11-4,-200.0,0.0,200.0,-99.9,0.0,200.0,0,0,100,29.77,29.63,0,0,0,0.00
2014-11-6,38.3,4.9,37.7,32.6,4.1,30.1,80,10,73,30.13,29.99,19,2,0,0.02
2014-11-7,38.7,13.1,27.8,33.7,10.5,25.2,90,27,67,30.16,29.70,5,1,0,0.00
2014-11-8,40.3,12.0,33.7,36.2,9.7,23.1,92,24,63,29.84,29.56,23,5,0,0.11
2014-11-9,38.9,5.2,36.4,33.6,4.0,23.0,84,10,56,29.87,29.63,10,1,0,0.00
2014-11-10,-200.0,0.0,200.0,-99.9,0.0,200.0,0,0,100,29.93,29.62,0,0,0,0.00
2014-11-11,-200.0,0.0,200.0,-99.9,0.0,200.0,0,0,100,29.94,29.62,0,0,0,0.00
2014-11-12,27.3,1.2,27.1,22.8,1.0,22.3,83,4,82,30.11,29.94,11,0,0,0.00